createdAt,value
2018-07-30T00:00:17.691Z,22.78
2018-07-30T00:02:47.578Z,22.70
2018-07-30T00:05:17.462Z,22.65
2018-07-30T00:07:47.235Z,22.70
2018-07-30T00:10:17.122Z,22.62
2018-07-30T00:12:47.292Z,22.57
2018-07-30T00:15:16.963Z,22.51
2018-07-30T00:17:47.288Z,22.45
2018-07-30T00:20:17.002Z,22.46
2018-07-30T00:22:46.834Z,22.43
2018-07-30T00:25:16.507Z,22.42
2018-07-30T00:27:46.313Z,22.68
2018-07-30T00:30:16.137Z,22.51
2018-07-30T00:32:45.977Z,22.45
2018-07-30T00:35:15.661Z,22.44
2018-07-30T00:37:45.480Z,22.45
2018-07-30T00:40:15.938Z,22.41
2018-07-30T00:42:48.381Z,22.39
2018-07-30T00:45:18.715Z,22.34
2018-07-30T00:47:48.571Z,22.29
2018-07-30T00:50:18.388Z,22.29
2018-07-30T00:52:48.160Z,22.30
2018-07-30T00:55:17.963Z,22.32
2018-07-30T00:57:47.767Z,22.34
2018-07-30T01:00:17.583Z,22.32
2018-07-30T01:02:47.321Z,22.27
2018-07-30T01:05:17.096Z,22.28
2018-07-30T01:07:46.901Z,22.27
2018-07-30T01:10:17.148Z,22.25
2018-07-30T01:12:47.248Z,22.22
2018-07-30T01:15:17.108Z,22.23
2018-07-30T01:17:46.931Z,22.23
2018-07-30T01:20:16.718Z,22.17
2018-07-30T01:22:46.540Z,22.15
2018-07-30T01:25:16.436Z,22.16
2018-07-30T01:27:46.162Z,22.18
2018-07-30T01:30:15.889Z,22.12
2018-07-30T01:32:46.027Z,22.09
2018-07-30T01:35:16.116Z,22.10
2018-07-30T01:37:45.945Z,22.09
2018-07-30T01:40:15.851Z,22.05
2018-07-30T01:42:45.658Z,22.03
2018-07-30T01:45:15.426Z,22.11
2018-07-30T01:47:45.282Z,22.10
2018-07-30T01:50:15.113Z,22.05
2018-07-30T01:52:45.168Z,22.07
2018-07-30T01:55:14.956Z,22.01
2018-07-30T01:57:44.791Z,21.97
2018-07-30T02:00:14.560Z,21.96
2018-07-30T02:02:44.708Z,22.00
2018-07-30T02:05:14.497Z,21.87
2018-07-30T02:07:44.338Z,21.84
2018-07-30T02:10:14.175Z,21.79
2018-07-30T02:12:43.923Z,21.77
2018-07-30T02:15:16.763Z,21.72
2018-07-30T02:17:46.541Z,21.66
2018-07-30T02:20:16.399Z,21.65
2018-07-30T02:22:46.195Z,21.64
2018-07-30T02:25:16.199Z,21.60
2018-07-30T02:27:45.972Z,21.60
2018-07-30T02:30:16.138Z,21.56
2018-07-30T02:32:46.352Z,21.45
2018-07-30T02:35:16.160Z,21.41
2018-07-30T02:37:45.973Z,21.38
2018-07-30T02:40:15.776Z,21.36
2018-07-30T02:42:45.596Z,21.44
2018-07-30T02:45:15.316Z,21.42
2018-07-30T02:47:45.517Z,21.44
2018-07-30T02:50:15.312Z,21.38
2018-07-30T02:52:45.136Z,21.53
2018-07-30T02:55:14.875Z,21.48
2018-07-30T02:57:44.694Z,21.50
2018-07-30T03:00:14.512Z,21.52
2018-07-30T03:02:44.283Z,21.45
2018-07-30T03:05:14.117Z,21.46
2018-07-30T03:07:43.908Z,21.49
2018-07-30T03:10:13.727Z,21.44
2018-07-30T03:12:43.571Z,21.48
2018-07-30T03:15:13.532Z,21.45
2018-07-30T03:17:43.676Z,21.51
2018-07-30T03:20:13.472Z,21.55
2018-07-30T03:22:43.327Z,21.54
2018-07-30T03:25:13.015Z,21.54
2018-07-30T03:27:42.803Z,21.59
2018-07-30T03:30:12.632Z,21.64
2018-07-30T03:32:42.444Z,22.04
2018-07-30T03:35:12.264Z,22.13
2018-07-30T03:37:42.128Z,22.06
2018-07-30T03:40:11.993Z,22.03
2018-07-30T03:42:41.838Z,22.22
2018-07-30T03:45:12.063Z,22.72
2018-07-30T03:47:41.861Z,22.78
2018-07-30T03:50:14.807Z,22.84
2018-07-30T03:52:45.791Z,22.97
2018-07-30T03:55:15.829Z,23.34
2018-07-30T03:57:45.560Z,23.59
2018-07-30T04:00:15.725Z,23.21
2018-07-30T04:02:45.596Z,23.30
2018-07-30T04:05:15.734Z,23.37
2018-07-30T04:07:45.499Z,23.23
2018-07-30T04:10:15.205Z,23.38
2018-07-30T04:12:45.141Z,23.45
2018-07-30T04:15:14.949Z,23.23
2018-07-30T04:17:44.639Z,23.37
2018-07-30T04:20:14.424Z,23.33
2018-07-30T04:22:44.195Z,23.40
2018-07-30T04:25:13.881Z,23.21
2018-07-30T04:27:43.690Z,23.29
2018-07-30T04:30:13.528Z,23.07
2018-07-30T04:32:43.330Z,23.31
2018-07-30T04:35:13.254Z,23.42
2018-07-30T04:37:43.085Z,23.42
2018-07-30T04:40:12.800Z,23.65
2018-07-30T04:42:42.708Z,23.64
2018-07-30T04:45:12.544Z,23.56
2018-07-30T04:47:42.380Z,23.84
2018-07-30T04:50:12.331Z,23.64
2018-07-30T04:52:42.062Z,23.66
2018-07-30T04:55:11.780Z,24.16
2018-07-30T04:57:41.581Z,23.73
2018-07-30T05:00:11.351Z,23.86
2018-07-30T05:02:41.597Z,23.76
2018-07-30T05:05:11.940Z,23.83
2018-07-30T05:07:41.747Z,23.84
2018-07-30T05:10:11.440Z,24.03
2018-07-30T05:12:41.277Z,24.05
2018-07-30T05:15:11.034Z,23.93
2018-07-30T05:17:41.496Z,24.25
2018-07-30T05:20:11.212Z,24.22
2018-07-30T05:22:41.056Z,24.58
2018-07-30T05:25:10.927Z,24.67
2018-07-30T05:27:40.739Z,24.52
2018-07-30T05:30:10.607Z,24.57
2018-07-30T05:32:40.739Z,24.60
2018-07-30T05:35:10.492Z,24.36
2018-07-30T05:37:40.224Z,24.56
2018-07-30T05:40:10.212Z,24.78
2018-07-30T05:42:40.106Z,24.91
2018-07-30T05:45:09.924Z,24.73
2018-07-30T05:47:39.747Z,25.05
2018-07-30T05:50:09.524Z,25.18
2018-07-30T05:52:39.362Z,25.14
2018-07-30T05:55:09.039Z,25.62
2018-07-30T05:57:39.043Z,25.45
2018-07-30T06:00:08.812Z,25.34
2018-07-30T06:02:38.541Z,25.54
2018-07-30T06:05:09.144Z,25.72
2018-07-30T06:07:38.951Z,25.50
2018-07-30T06:10:14.194Z,26.03
2018-07-30T06:12:43.951Z,25.91
2018-07-30T06:15:13.940Z,25.96
2018-07-30T06:17:43.720Z,25.81
2018-07-30T06:20:13.560Z,25.99
2018-07-30T06:22:43.323Z,26.19
2018-07-30T06:25:13.164Z,26.25
2018-07-30T06:27:43.327Z,26.75
2018-07-30T06:30:13.554Z,27.64
2018-07-30T06:32:43.348Z,27.30
2018-07-30T06:35:13.056Z,27.51
2018-07-30T06:37:42.771Z,27.61
2018-07-30T06:40:12.631Z,27.93
2018-07-30T06:42:42.549Z,27.67
2018-07-30T06:45:12.395Z,27.71
2018-07-30T06:47:42.394Z,27.77
2018-07-30T06:50:12.431Z,27.70
2018-07-30T06:52:42.251Z,28.62
2018-07-30T06:55:12.247Z,28.68
2018-07-30T06:57:42.254Z,27.90
2018-07-30T07:00:12.047Z,29.13
2018-07-30T07:02:42.236Z,27.60
2018-07-30T07:05:12.464Z,28.97
2018-07-30T07:07:42.281Z,29.71
2018-07-30T07:10:12.836Z,29.52
2018-07-30T07:12:42.581Z,29.08
2018-07-30T07:15:14.140Z,29.61
2018-07-30T07:17:44.850Z,30.27
2018-07-30T07:20:14.631Z,30.14
2018-07-30T07:22:44.372Z,30.62
2018-07-30T07:25:14.172Z,31.12
2018-07-30T07:27:43.969Z,32.29
2018-07-30T07:30:13.688Z,31.94
2018-07-30T07:32:43.656Z,31.80
2018-07-30T07:35:13.610Z,31.12
2018-07-30T07:37:43.459Z,30.82
2018-07-30T07:40:13.232Z,31.50
2018-07-30T07:42:43.065Z,31.14
2018-07-30T07:45:13.044Z,30.42
2018-07-30T07:47:42.949Z,29.44
2018-07-30T07:50:12.788Z,30.11
2018-07-30T07:52:42.464Z,30.32
2018-07-30T07:55:12.766Z,30.36
2018-07-30T07:57:42.819Z,29.80
2018-07-30T08:00:12.711Z,29.79
2018-07-30T08:02:42.477Z,29.61
2018-07-30T08:05:12.432Z,28.95
2018-07-30T08:07:42.163Z,29.95
2018-07-30T08:10:12.189Z,29.35
2018-07-30T08:12:41.967Z,28.61
2018-07-30T08:15:11.839Z,28.40
2018-07-30T08:17:41.760Z,28.30
2018-07-30T08:20:11.617Z,27.12
2018-07-30T08:22:41.568Z,27.33
2018-07-30T08:25:13.262Z,27.74
2018-07-30T08:27:43.659Z,27.04
2018-07-30T08:30:13.469Z,27.43
2018-07-30T08:32:43.576Z,27.88
2018-07-30T08:35:13.504Z,27.61
2018-07-30T08:37:43.294Z,28.14
2018-07-30T08:40:13.172Z,29.52
2018-07-30T08:42:43.336Z,29.28
2018-07-30T08:45:13.203Z,29.38
2018-07-30T08:47:42.972Z,29.71
2018-07-30T08:50:12.786Z,29.36
2018-07-30T08:52:42.497Z,29.36
2018-07-30T08:55:12.172Z,29.85
2018-07-30T08:57:42.094Z,29.73
2018-07-30T09:00:11.985Z,29.95
2018-07-30T09:02:41.722Z,29.37
2018-07-30T09:05:12.435Z,28.65
2018-07-30T09:07:42.236Z,29.20
2018-07-30T09:10:12.004Z,28.59
2018-07-30T09:12:43.154Z,28.02
2018-07-30T09:15:13.235Z,28.82
2018-07-30T09:17:43.129Z,29.59
2018-07-30T09:20:12.793Z,29.80
2018-07-30T09:22:42.576Z,29.08
2018-07-30T09:25:12.356Z,28.51
2018-07-30T09:27:42.192Z,28.49
2018-07-30T09:30:11.992Z,28.40
2018-07-30T09:32:41.814Z,28.72
2018-07-30T09:35:11.686Z,28.25
2018-07-30T09:37:41.805Z,28.34
2018-07-30T09:40:12.368Z,27.91
2018-07-30T09:42:42.278Z,27.92
2018-07-30T09:45:12.110Z,27.92
2018-07-30T09:47:41.907Z,28.34
2018-07-30T09:50:11.589Z,28.53
2018-07-30T09:52:41.496Z,29.44
2018-07-30T09:55:11.392Z,29.12
2018-07-30T09:57:41.187Z,29.16
2018-07-30T10:00:11.329Z,29.29
2018-07-30T10:02:41.121Z,29.03
2018-07-30T10:05:10.901Z,28.87
2018-07-30T10:07:40.700Z,28.59
2018-07-30T10:10:10.428Z,29.06
2018-07-30T10:12:40.211Z,28.31
2018-07-30T10:15:10.055Z,28.68
2018-07-30T10:17:39.880Z,28.69
2018-07-30T10:20:10.329Z,28.40
2018-07-30T10:22:40.024Z,28.45
2018-07-30T10:25:10.645Z,28.79
2018-07-30T10:27:40.776Z,29.40
2018-07-30T10:30:10.456Z,29.53
2018-07-30T10:32:40.257Z,29.36
2018-07-30T10:35:09.948Z,29.76
2018-07-30T10:37:39.994Z,29.47
2018-07-30T10:40:10.106Z,29.71
2018-07-30T10:42:39.995Z,29.41
2018-07-30T10:45:10.113Z,30.36
2018-07-30T10:47:40.215Z,29.84
2018-07-30T10:50:10.183Z,30.58
2018-07-30T10:52:40.188Z,30.79
2018-07-30T10:55:09.976Z,30.56
2018-07-30T10:57:39.771Z,30.35
2018-07-30T11:00:09.889Z,30.52
2018-07-30T11:02:39.958Z,30.03
2018-07-30T11:05:09.707Z,30.08
2018-07-30T11:07:39.501Z,30.61
2018-07-30T11:10:09.308Z,30.54
2018-07-30T11:12:39.091Z,29.69
2018-07-30T11:15:08.756Z,30.54
2018-07-30T11:17:38.964Z,30.46
2018-07-30T11:20:08.825Z,29.92
2018-07-30T11:22:38.618Z,30.09
2018-07-30T11:25:08.904Z,30.89
2018-07-30T11:27:38.979Z,31.08
2018-07-30T11:30:08.835Z,30.93
2018-07-30T11:32:38.867Z,30.32
2018-07-30T11:35:08.797Z,30.88
2018-07-30T11:37:38.508Z,30.73
2018-07-30T11:40:08.272Z,30.25
2018-07-30T11:42:37.988Z,30.41
2018-07-30T11:45:07.834Z,29.98
2018-07-30T11:47:37.525Z,29.77
2018-07-30T11:50:07.336Z,30.12
2018-07-30T11:52:37.183Z,30.27
2018-07-30T11:55:07.065Z,29.85
2018-07-30T11:57:36.789Z,30.29
2018-07-30T12:00:07.304Z,30.24
2018-07-30T12:02:37.425Z,29.87
2018-07-30T12:05:07.505Z,30.08
2018-07-30T12:07:37.314Z,30.28
2018-07-30T12:10:07.519Z,30.19
2018-07-30T12:12:37.239Z,30.75
2018-07-30T12:15:07.221Z,31.08
2018-07-30T12:17:37.496Z,30.59
2018-07-30T12:20:07.747Z,31.72
2018-07-30T12:22:37.534Z,31.32
2018-07-30T12:25:07.365Z,31.93
2018-07-30T12:27:37.356Z,31.57
2018-07-30T12:30:08.006Z,31.79
2018-07-30T12:32:38.037Z,31.43
2018-07-30T12:35:07.792Z,31.47
2018-07-30T12:37:37.459Z,31.96
2018-07-30T12:40:07.214Z,31.88
2018-07-30T12:42:37.386Z,31.51
2018-07-30T12:45:07.266Z,31.44
2018-07-30T12:47:37.434Z,31.38
2018-07-30T12:50:07.322Z,31.43
2018-07-30T12:52:37.421Z,30.92
2018-07-30T12:55:07.503Z,31.54
2018-07-30T12:57:37.274Z,31.58
2018-07-30T13:00:07.316Z,31.37
2018-07-30T13:02:37.129Z,31.49
2018-07-30T13:05:07.120Z,31.39
2018-07-30T13:07:37.284Z,31.94
2018-07-30T13:10:07.086Z,31.90
2018-07-30T13:12:37.204Z,32.01
2018-07-30T13:15:07.356Z,31.82
2018-07-30T13:17:37.212Z,32.04
2018-07-30T13:20:06.995Z,32.37
2018-07-30T13:22:37.229Z,31.81
2018-07-30T13:25:07.332Z,32.06
2018-07-30T13:27:37.763Z,31.28
2018-07-30T13:30:08.579Z,31.62
2018-07-30T13:32:38.836Z,31.17
2018-07-30T13:35:08.968Z,32.56
2018-07-30T13:37:38.727Z,32.98
2018-07-30T13:40:08.557Z,32.88
2018-07-30T13:42:38.492Z,32.85
2018-07-30T13:45:08.277Z,32.15
2018-07-30T13:47:38.333Z,33.47
2018-07-30T13:50:10.206Z,33.31
2018-07-30T13:52:40.095Z,32.78
2018-07-30T13:55:10.372Z,33.15
2018-07-30T13:57:40.132Z,33.22
2018-07-30T14:00:11.252Z,33.11
2018-07-30T14:02:41.252Z,32.64
2018-07-30T14:05:11.696Z,31.98
2018-07-30T14:07:41.614Z,31.70
2018-07-30T14:10:11.667Z,30.75
2018-07-30T14:12:41.876Z,30.37
2018-07-30T14:15:11.751Z,29.99
2018-07-30T14:17:41.443Z,29.92
2018-07-30T14:20:11.279Z,30.19
2018-07-30T14:22:41.402Z,29.79
2018-07-30T14:25:11.183Z,28.98
2018-07-30T14:27:40.981Z,29.55
2018-07-30T14:30:11.233Z,30.16
2018-07-30T14:32:41.032Z,29.68
2018-07-30T14:35:10.708Z,29.65
2018-07-30T14:37:40.569Z,29.77
2018-07-30T14:40:12.535Z,29.62
2018-07-30T14:42:42.749Z,29.07
2018-07-30T14:45:12.637Z,29.60
2018-07-30T14:47:42.636Z,29.49
2018-07-30T14:50:12.964Z,30.16
2018-07-30T14:52:43.052Z,30.50
2018-07-30T14:55:12.892Z,30.40
2018-07-30T14:57:43.171Z,30.44
2018-07-30T15:00:13.024Z,30.54
2018-07-30T15:02:43.596Z,31.01
2018-07-30T15:05:18.234Z,31.94
2018-07-30T15:07:48.693Z,33.38
2018-07-30T15:10:18.589Z,33.71
2018-07-30T15:12:48.641Z,33.41
2018-07-30T15:15:18.847Z,32.62
2018-07-30T15:17:48.887Z,33.77
2018-07-30T15:20:19.188Z,34.21
2018-07-30T15:22:49.354Z,33.99
2018-07-30T15:25:19.328Z,31.49
2018-07-30T15:27:49.333Z,30.68
2018-07-30T15:30:19.532Z,29.90
2018-07-30T15:32:49.543Z,28.99
2018-07-30T15:35:19.969Z,29.02
2018-07-30T15:37:50.432Z,28.48
2018-07-30T15:40:20.452Z,28.57
2018-07-30T15:42:50.476Z,28.31
2018-07-30T15:45:20.483Z,27.86
2018-07-30T15:47:50.518Z,27.94
2018-07-30T15:50:20.538Z,28.07
2018-07-30T15:52:50.824Z,27.83
2018-07-30T15:55:21.016Z,27.75
2018-07-30T15:57:51.017Z,27.88
2018-07-30T16:00:21.034Z,28.14
2018-07-30T16:02:51.550Z,27.61
2018-07-30T16:05:22.063Z,27.75
2018-07-30T16:07:52.660Z,27.68
2018-07-30T16:10:22.758Z,27.56
2018-07-30T16:12:52.824Z,27.38
2018-07-30T16:15:23.816Z,27.58
2018-07-30T16:17:53.873Z,27.33
2018-07-30T16:20:23.882Z,27.71
2018-07-30T16:22:53.823Z,27.63
2018-07-30T16:25:23.771Z,27.87
2018-07-30T16:27:53.716Z,27.65
2018-07-30T16:30:23.636Z,27.70
2018-07-30T16:32:53.911Z,27.33
2018-07-30T16:35:23.811Z,27.57
2018-07-30T16:37:54.051Z,27.61
2018-07-30T16:40:24.238Z,27.85
2018-07-30T16:42:54.537Z,27.90
2018-07-30T16:45:25.737Z,27.58
2018-07-30T16:47:56.699Z,27.53
2018-07-30T16:50:27.112Z,27.31
2018-07-30T16:52:57.027Z,27.43
2018-07-30T16:55:26.735Z,27.09
2018-07-30T16:57:56.909Z,26.76
2018-07-30T17:00:26.865Z,26.70
2018-07-30T17:02:57.512Z,27.11
2018-07-30T17:05:27.857Z,27.19
2018-07-30T17:07:58.170Z,27.48
2018-07-30T17:10:28.237Z,27.04
2018-07-30T17:12:58.532Z,26.95
2018-07-30T17:15:28.699Z,27.15
2018-07-30T17:17:58.796Z,26.87
2018-07-30T17:20:28.968Z,26.90
2018-07-30T17:22:59.068Z,26.98
2018-07-30T17:25:29.140Z,26.89
2018-07-30T17:28:00.207Z,26.60
2018-07-30T17:30:30.129Z,26.61
2018-07-30T17:33:00.236Z,26.27
2018-07-30T17:35:30.268Z,26.55
2018-07-30T17:38:00.217Z,26.80
2018-07-30T17:40:30.165Z,26.96
2018-07-30T17:43:00.183Z,26.97
2018-07-30T17:45:30.737Z,26.84
2018-07-30T17:48:01.112Z,26.30
2018-07-30T17:50:31.164Z,26.11
2018-07-30T17:53:01.108Z,26.03
2018-07-30T17:55:31.088Z,26.03
2018-07-30T17:58:01.120Z,26.35
2018-07-30T18:00:31.508Z,26.28
2018-07-30T18:03:03.184Z,26.26
2018-07-30T18:05:34.157Z,26.19
2018-07-30T18:08:04.137Z,26.25
2018-07-30T18:10:34.517Z,26.59
2018-07-30T18:13:05.529Z,26.78
2018-07-30T18:15:35.760Z,26.54
2018-07-30T18:18:05.663Z,26.80
2018-07-30T18:20:36.708Z,26.58
2018-07-30T18:23:06.621Z,26.77
2018-07-30T18:25:36.767Z,26.53
2018-07-30T18:28:06.917Z,26.51
2018-07-30T18:30:37.248Z,26.66
2018-07-30T18:33:07.633Z,26.31
2018-07-30T18:35:37.872Z,26.18
2018-07-30T18:38:08.149Z,26.43
2018-07-30T18:40:38.566Z,26.80
2018-07-30T18:43:08.845Z,26.41
2018-07-30T18:45:39.042Z,26.90
2018-07-30T18:48:09.141Z,26.67
2018-07-30T18:50:39.309Z,26.68
2018-07-30T18:53:09.400Z,26.37
2018-07-30T18:55:39.247Z,26.57
2018-07-30T18:58:09.637Z,26.50
2018-07-30T19:00:39.850Z,26.69
2018-07-30T19:03:10.004Z,26.54
2018-07-30T19:05:40.183Z,26.53
2018-07-30T19:08:11.391Z,26.18
2018-07-30T19:10:42.701Z,25.88
2018-07-30T19:13:12.739Z,26.02
2018-07-30T19:15:42.867Z,25.98
2018-07-30T19:18:13.121Z,25.96
2018-07-30T19:20:43.268Z,25.99
2018-07-30T19:23:13.653Z,25.69
2018-07-30T19:25:43.771Z,25.57
2018-07-30T19:28:14.177Z,25.49
2018-07-30T19:30:44.305Z,25.54
2018-07-30T19:33:14.569Z,25.51
2018-07-30T19:35:45.024Z,25.55
2018-07-30T19:38:15.565Z,25.41
2018-07-30T19:40:45.676Z,25.27
2018-07-30T19:43:15.641Z,25.37
2018-07-30T19:45:45.820Z,25.52
2018-07-30T19:48:15.872Z,25.65
2018-07-30T19:50:45.804Z,25.47
2018-07-30T19:53:15.667Z,25.51
2018-07-30T19:55:45.432Z,25.18
2018-07-30T19:58:15.620Z,25.38
2018-07-30T20:00:45.391Z,25.42
2018-07-30T20:03:15.423Z,25.12
2018-07-30T20:05:45.458Z,25.00
2018-07-30T20:08:15.628Z,25.04
2018-07-30T20:10:45.637Z,25.04
2018-07-30T20:13:15.567Z,25.09
2018-07-30T20:15:45.818Z,25.46
2018-07-30T20:18:15.730Z,25.28
2018-07-30T20:20:45.700Z,25.03
2018-07-30T20:23:15.750Z,24.85
2018-07-30T20:25:45.928Z,25.06
2018-07-30T20:28:16.029Z,25.00
2018-07-30T20:30:46.060Z,24.87
2018-07-30T20:33:16.029Z,25.09
2018-07-30T20:35:45.926Z,25.33
2018-07-30T20:38:15.869Z,25.11
2018-07-30T20:40:45.743Z,25.05
2018-07-30T20:43:15.699Z,25.29
2018-07-30T20:45:45.602Z,25.21
2018-07-30T20:48:15.868Z,25.05
2018-07-30T20:50:46.164Z,24.64
2018-07-30T20:53:16.075Z,24.45
2018-07-30T20:55:46.236Z,24.36
2018-07-30T20:58:16.544Z,24.20
2018-07-30T21:00:46.524Z,24.65
2018-07-30T21:03:16.545Z,24.54
2018-07-30T21:05:47.469Z,24.50
2018-07-30T21:08:17.685Z,24.33
2018-07-30T21:10:47.592Z,24.41
2018-07-30T21:13:17.834Z,24.38
2018-07-30T21:15:47.816Z,24.28
2018-07-30T21:18:17.740Z,24.26
2018-07-30T21:20:47.892Z,24.21
2018-07-30T21:23:18.174Z,24.15
2018-07-30T21:25:48.490Z,24.07
2018-07-30T21:28:18.994Z,24.11
2018-07-30T21:30:48.914Z,24.06
2018-07-30T21:33:19.112Z,24.14
2018-07-30T21:35:49.324Z,24.03
2018-07-30T21:38:19.235Z,24.34
2018-07-30T21:40:49.236Z,24.25
2018-07-30T21:43:19.072Z,24.35
2018-07-30T21:45:49.152Z,24.40
2018-07-30T21:48:19.213Z,24.51
2018-07-30T21:50:49.253Z,24.37
2018-07-30T21:53:19.139Z,24.36
2018-07-30T21:55:48.985Z,24.50
2018-07-30T21:58:19.057Z,24.33
2018-07-30T22:00:54.076Z,24.47
2018-07-30T22:03:24.257Z,24.34
2018-07-30T22:05:56.235Z,24.29
2018-07-30T22:08:26.533Z,24.16
2018-07-30T22:10:56.448Z,24.18
2018-07-30T22:13:26.432Z,24.13
2018-07-30T22:15:56.588Z,24.19
2018-07-30T22:18:26.728Z,24.35
2018-07-30T22:20:56.726Z,24.31
2018-07-30T22:23:26.676Z,24.45
2018-07-30T22:25:56.495Z,24.40
2018-07-30T22:28:26.482Z,24.33
2018-07-30T22:30:56.359Z,24.28
2018-07-30T22:33:26.575Z,24.69
2018-07-30T22:35:56.592Z,24.35
2018-07-30T22:38:26.556Z,24.41
2018-07-30T22:40:56.490Z,24.44
2018-07-30T22:43:26.478Z,24.22
2018-07-30T22:45:56.396Z,24.33
2018-07-30T22:48:26.563Z,24.54
2018-07-30T22:50:56.453Z,23.97
2018-07-30T22:53:26.460Z,24.19
2018-07-30T22:55:56.186Z,24.12
2018-07-30T22:58:26.240Z,24.43
2018-07-30T23:00:56.172Z,24.61
2018-07-30T23:03:26.141Z,24.28
2018-07-30T23:05:56.654Z,24.17
2018-07-30T23:08:26.951Z,24.05
2018-07-30T23:10:57.121Z,24.08
2018-07-30T23:13:27.233Z,24.32
2018-07-30T23:15:57.091Z,23.99
2018-07-30T23:18:27.136Z,23.84
2018-07-30T23:20:57.078Z,23.95
2018-07-30T23:23:27.152Z,23.72
2018-07-30T23:25:58.126Z,23.60
2018-07-30T23:28:28.020Z,23.75
2018-07-30T23:30:58.025Z,23.54
2018-07-30T23:33:28.299Z,23.51
2018-07-30T23:35:58.308Z,23.46
2018-07-30T23:38:28.472Z,23.48
2018-07-30T23:40:58.663Z,23.53
2018-07-30T23:43:28.619Z,23.61
2018-07-30T23:45:58.471Z,23.53
2018-07-30T23:48:28.556Z,23.41
2018-07-30T23:50:58.388Z,23.48
2018-07-30T23:53:28.495Z,23.37
2018-07-30T23:55:58.665Z,23.19
2018-07-30T23:58:28.766Z,23.13
